sensor_id;sensor_type;location;lat;lon;timestamp;pressure;altitude;pressure_sealevel;temperature;humidity
52032;BME280;38044;45.148;39.604;2023-04-27T00:00:46;100317.22;;;14.52;74.86
52032;BME280;38044;45.148;39.604;2023-04-27T00:03:12;100300.69;;;14.36;74.81
52032;BME280;38044;45.148;39.604;2023-04-27T00:05:38;100302.28;;;14.37;74.63
52032;BME280;38044;45.148;39.604;2023-04-27T00:08:07;100346.94;;;14.60;74.55
52032;BME280;38044;45.148;39.604;2023-04-27T00:10:33;100348.53;;;14.61;74.25
52032;BME280;38044;45.148;39.604;2023-04-27T00:13:00;100226.72;;;13.76;74.35
52032;BME280;38044;45.148;39.604;2023-04-27T00:15:26;100338.69;;;14.48;74.54
52032;BME280;38044;45.148;39.604;2023-04-27T00:17:53;100331.22;;;14.36;74.49
52032;BME280;38044;45.148;39.604;2023-04-27T00:20:19;100323.63;;;14.21;74.54
52032;BME280;38044;45.148;39.604;2023-04-27T00:22:45;100248.16;;;13.72;74.88
52032;BME280;38044;45.148;39.604;2023-04-27T00:25:11;100359.34;;;14.44;74.86
52032;BME280;38044;45.148;39.604;2023-04-27T00:27:37;100309.19;;;14.08;74.96
52032;BME280;38044;45.148;39.604;2023-04-27T00:30:03;100315.53;;;14.12;74.39
52032;BME280;38044;45.148;39.604;2023-04-27T00:32:29;100326.94;;;14.27;74.23
52032;BME280;38044;45.148;39.604;2023-04-27T00:34:55;100353.31;;;14.47;73.94
52032;BME280;38044;45.148;39.604;2023-04-27T00:37:22;100347.44;;;14.45;74.04
52032;BME280;38044;45.148;39.604;2023-04-27T00:39:48;100351.59;;;14.42;74.30
52032;BME280;38044;45.148;39.604;2023-04-27T00:42:14;100292.13;;;14.08;74.65
52032;BME280;38044;45.148;39.604;2023-04-27T00:44:44;100319.97;;;14.17;74.71
52032;BME280;38044;45.148;39.604;2023-04-27T00:47:10;100223.09;;;13.46;74.82
52032;BME280;38044;45.148;39.604;2023-04-27T00:49:37;100314.25;;;14.01;75.35
52032;BME280;38044;45.148;39.604;2023-04-27T00:52:03;100326.31;;;14.12;75.15
52032;BME280;38044;45.148;39.604;2023-04-27T00:54:29;100349.22;;;14.24;75.41
52032;BME280;38044;45.148;39.604;2023-04-27T00:56:55;100332.38;;;14.09;75.67
52032;BME280;38044;45.148;39.604;2023-04-27T00:59:20;100348.72;;;14.22;75.88
52032;BME280;38044;45.148;39.604;2023-04-27T01:01:46;100212.44;;;13.32;76.00
52032;BME280;38044;45.148;39.604;2023-04-27T01:04:12;100219.59;;;13.37;75.76
52032;BME280;38044;45.148;39.604;2023-04-27T01:06:38;100129.03;;;12.78;75.54
52032;BME280;38044;45.148;39.604;2023-04-27T01:09:04;100305.84;;;13.94;75.88
52032;BME280;38044;45.148;39.604;2023-04-27T01:11:31;100343.50;;;14.16;76.19
52032;BME280;38044;45.148;39.604;2023-04-27T01:14:02;100346.50;;;14.24;76.56
52032;BME280;38044;45.148;39.604;2023-04-27T01:16:30;100342.22;;;14.23;75.94
52032;BME280;38044;45.148;39.604;2023-04-27T01:18:56;100222.44;;;13.49;75.73
52032;BME280;38044;45.148;39.604;2023-04-27T01:21:22;100313.75;;;14.08;75.90
52032;BME280;38044;45.148;39.604;2023-04-27T01:23:48;100309.81;;;14.05;75.63
52032;BME280;38044;45.148;39.604;2023-04-27T01:26:13;100330.78;;;14.26;75.60
52032;BME280;38044;45.148;39.604;2023-04-27T01:28:41;100333.63;;;14.20;75.35
52032;BME280;38044;45.148;39.604;2023-04-27T01:31:08;100224.22;;;13.54;75.17
52032;BME280;38044;45.148;39.604;2023-04-27T01:33:34;100339.03;;;14.20;75.16
52032;BME280;38044;45.148;39.604;2023-04-27T01:36:00;100262.00;;;13.71;75.32
52032;BME280;38044;45.148;39.604;2023-04-27T01:38:26;100298.69;;;13.98;75.20
52032;BME280;38044;45.148;39.604;2023-04-27T01:40:52;100258.19;;;13.63;75.28
52032;BME280;38044;45.148;39.604;2023-04-27T01:43:20;100347.94;;;14.12;75.65
52032;BME280;38044;45.148;39.604;2023-04-27T01:45:46;100307.44;;;13.95;75.64
52032;BME280;38044;45.148;39.604;2023-04-27T01:48:12;100280.59;;;13.72;75.59
52032;BME280;38044;45.148;39.604;2023-04-27T01:50:38;100333.19;;;14.01;76.00
52032;BME280;38044;45.148;39.604;2023-04-27T01:53:04;100343.34;;;13.95;76.33
52032;BME280;38044;45.148;39.604;2023-04-27T01:55:30;100205.72;;;13.12;76.38
52032;BME280;38044;45.148;39.604;2023-04-27T01:57:56;100315.22;;;13.79;76.73
52032;BME280;38044;45.148;39.604;2023-04-27T02:00:22;100317.13;;;13.79;76.95
52032;BME280;38044;45.148;39.604;2023-04-27T02:02:47;100325.88;;;13.84;76.78
52032;BME280;38044;45.148;39.604;2023-04-27T02:05:18;100210.97;;;13.00;77.09
52032;BME280;38044;45.148;39.604;2023-04-27T02:07:44;100329.69;;;13.83;77.46
52032;BME280;38044;45.148;39.604;2023-04-27T02:10:10;100308.88;;;13.66;77.26
52032;BME280;38044;45.148;39.604;2023-04-27T02:12:35;100345.13;;;13.83;77.08
52032;BME280;38044;45.148;39.604;2023-04-27T02:15:01;100207.47;;;12.91;77.01
52032;BME280;38044;45.148;39.604;2023-04-27T02:17:28;100363.22;;;13.73;77.43
52032;BME280;38044;45.148;39.604;2023-04-27T02:19:54;100352.88;;;13.67;77.14
52032;BME280;38044;45.148;39.604;2023-04-27T02:22:20;100308.38;;;13.47;77.60
52032;BME280;38044;45.148;39.604;2023-04-27T02:24:45;100340.63;;;13.61;77.57
52032;BME280;38044;45.148;39.604;2023-04-27T02:27:11;100350.03;;;13.63;77.66
52032;BME280;38044;45.148;39.604;2023-04-27T02:29:37;100346.97;;;13.56;77.70
52032;BME280;38044;45.148;39.604;2023-04-27T02:32:05;100360.81;;;13.55;77.77
52032;BME280;38044;45.148;39.604;2023-04-27T02:34:31;100226.13;;;12.78;77.09
52032;BME280;38044;45.148;39.604;2023-04-27T02:36:56;100230.91;;;12.81;77.15
52032;BME280;38044;45.148;39.604;2023-04-27T02:39:22;100371.34;;;13.73;77.30
52032;BME280;38044;45.148;39.604;2023-04-27T02:41:48;100367.19;;;13.76;77.05
52032;BME280;38044;45.148;39.604;2023-04-27T02:44:14;100228.06;;;12.87;76.80
52032;BME280;38044;45.148;39.604;2023-04-27T02:46:40;100327.13;;;13.52;76.62
52032;BME280;38044;45.148;39.604;2023-04-27T02:49:06;100376.75;;;13.82;76.48
52032;BME280;38044;45.148;39.604;2023-04-27T02:51:31;100270.34;;;13.17;76.46
52032;BME280;38044;45.148;39.604;2023-04-27T02:53:57;100345.25;;;13.69;76.42
52032;BME280;38044;45.148;39.604;2023-04-27T02:56:23;100385.78;;;13.95;76.26
52032;BME280;38044;45.148;39.604;2023-04-27T02:58:49;100255.00;;;13.26;75.66
52032;BME280;38044;45.148;39.604;2023-04-27T03:01:15;100392.16;;;14.16;75.42
52032;BME280;38044;45.148;39.604;2023-04-27T03:03:46;100392.94;;;14.26;75.48
52032;BME280;38044;45.148;39.604;2023-04-27T03:06:12;100239.28;;;13.46;74.75
52032;BME280;38044;45.148;39.604;2023-04-27T03:08:38;100362.22;;;14.39;74.23
52032;BME280;38044;45.148;39.604;2023-04-27T03:11:04;100394.66;;;14.74;73.59
52032;BME280;38044;45.148;39.604;2023-04-27T03:13:30;100401.59;;;14.92;73.18
52032;BME280;38044;45.148;39.604;2023-04-27T03:16:03;100394.88;;;14.98;72.49
52032;BME280;38044;45.148;39.604;2023-04-27T03:18:28;100407.09;;;15.13;72.23
52032;BME280;38044;45.148;39.604;2023-04-27T03:21:04;100401.63;;;15.22;72.17
52032;BME280;38044;45.148;39.604;2023-04-27T03:23:30;100359.38;;;15.00;71.97
52032;BME280;38044;45.148;39.604;2023-04-27T03:25:56;100401.88;;;15.38;71.49
52032;BME280;38044;45.148;39.604;2023-04-27T03:28:21;100368.44;;;15.33;71.85
52032;BME280;38044;45.148;39.604;2023-04-27T03:30:47;100376.63;;;15.54;71.32
52032;BME280;38044;45.148;39.604;2023-04-27T03:33:13;100411.94;;;15.88;70.84
52032;BME280;38044;45.148;39.604;2023-04-27T03:35:39;100386.25;;;15.94;70.72
52032;BME280;38044;45.148;39.604;2023-04-27T03:38:05;100394.94;;;16.41;69.77
52032;BME280;38044;45.148;39.604;2023-04-27T03:40:30;100400.38;;;16.87;68.17
52032;BME280;38044;45.148;39.604;2023-04-27T03:42:56;100409.13;;;17.05;66.77
52032;BME280;38044;45.148;39.604;2023-04-27T03:45:22;100257.84;;;15.98;67.05
52032;BME280;38044;45.148;39.604;2023-04-27T03:47:49;100396.00;;;16.61;67.26
52032;BME280;38044;45.148;39.604;2023-04-27T03:50:14;100383.09;;;16.46;67.40
52032;BME280;38044;45.148;39.604;2023-04-27T03:52:40;100411.72;;;16.89;66.71
52032;BME280;38044;45.148;39.604;2023-04-27T03:55:06;100408.69;;;17.52;65.10
52032;BME280;38044;45.148;39.604;2023-04-27T03:57:32;100385.53;;;17.83;63.89
52032;BME280;38044;45.148;39.604;2023-04-27T03:59:58;100406.53;;;18.10;62.96
52032;BME280;38044;45.148;39.604;2023-04-27T04:02:24;100404.53;;;18.07;63.26
52032;BME280;38044;45.148;39.604;2023-04-27T04:04:50;100401.66;;;18.44;62.37
52032;BME280;38044;45.148;39.604;2023-04-27T04:07:16;100385.84;;;18.78;60.68
52032;BME280;38044;45.148;39.604;2023-04-27T04:09:43;100413.25;;;18.85;60.74
52032;BME280;38044;45.148;39.604;2023-04-27T04:12:08;100316.34;;;18.68;59.48
52032;BME280;38044;45.148;39.604;2023-04-27T04:14:34;100417.03;;;19.95;57.65
52032;BME280;38044;45.148;39.604;2023-04-27T04:17:00;100422.69;;;20.44;56.86
52032;BME280;38044;45.148;39.604;2023-04-27T04:19:26;100392.09;;;20.16;55.94
52032;BME280;38044;45.148;39.604;2023-04-27T04:21:52;100345.50;;;19.86;55.94
52032;BME280;38044;45.148;39.604;2023-04-27T04:24:19;100315.94;;;19.88;55.59
52032;BME280;38044;45.148;39.604;2023-04-27T04:26:46;100422.47;;;21.19;54.37
52032;BME280;38044;45.148;39.604;2023-04-27T04:29:12;100420.94;;;22.01;52.93
52032;BME280;38044;45.148;39.604;2023-04-27T04:31:38;100396.47;;;22.49;50.86
52032;BME280;38044;45.148;39.604;2023-04-27T04:34:04;100419.31;;;23.53;49.12
52032;BME280;38044;45.148;39.604;2023-04-27T04:36:30;100424.41;;;24.35;47.22
52032;BME280;38044;45.148;39.604;2023-04-27T04:38:56;100388.41;;;24.65;45.66
52032;BME280;38044;45.148;39.604;2023-04-27T04:41:23;100415.16;;;25.18;45.27
52032;BME280;38044;45.148;39.604;2023-04-27T04:43:49;100393.09;;;25.54;43.90
52032;BME280;38044;45.148;39.604;2023-04-27T04:46:15;100404.03;;;25.90;43.08
52032;BME280;38044;45.148;39.604;2023-04-27T04:48:41;100363.03;;;26.13;42.36
52032;BME280;38044;45.148;39.604;2023-04-27T04:51:06;100362.44;;;26.47;41.09
52032;BME280;38044;45.148;39.604;2023-04-27T04:53:32;100418.25;;;27.17;41.25
52032;BME280;38044;45.148;39.604;2023-04-27T04:56:10;100307.41;;;26.81;40.14
52032;BME280;38044;45.148;39.604;2023-04-27T04:58:36;100415.09;;;27.19;40.41
52032;BME280;38044;45.148;39.604;2023-04-27T05:01:02;100409.59;;;27.15;40.76
52032;BME280;38044;45.148;39.604;2023-04-27T05:03:28;100413.03;;;27.27;40.16
52032;BME280;38044;45.148;39.604;2023-04-27T05:05:53;100402.13;;;27.54;39.66
52032;BME280;38044;45.148;39.604;2023-04-27T05:08:19;100418.09;;;28.38;38.42
52032;BME280;38044;45.148;39.604;2023-04-27T05:10:52;100427.69;;;28.61;37.47
52032;BME280;38044;45.148;39.604;2023-04-27T05:13:19;100331.16;;;28.16;37.43
52032;BME280;38044;45.148;39.604;2023-04-27T05:15:45;100392.72;;;28.74;37.15
52032;BME280;38044;45.148;39.604;2023-04-27T05:18:11;100415.22;;;29.47;38.36
52032;BME280;38044;45.148;39.604;2023-04-27T05:20:37;100315.69;;;29.39;35.91
52032;BME280;38044;45.148;39.604;2023-04-27T05:23:03;100422.84;;;30.59;34.99
52032;BME280;38044;45.148;39.604;2023-04-27T05:25:30;100417.34;;;31.08;34.21
52032;BME280;38044;45.148;39.604;2023-04-27T05:27:56;100409.19;;;31.01;35.09
52032;BME280;38044;45.148;39.604;2023-04-27T05:30:22;100384.47;;;30.73;34.72
52032;BME280;38044;45.148;39.604;2023-04-27T05:32:48;100384.81;;;30.59;34.46
52032;BME280;38044;45.148;39.604;2023-04-27T05:35:14;100415.66;;;30.78;34.57
52032;BME280;38044;45.148;39.604;2023-04-27T05:37:40;100416.53;;;31.24;33.75
52032;BME280;38044;45.148;39.604;2023-04-27T05:40:06;100276.69;;;30.88;32.39
52032;BME280;38044;45.148;39.604;2023-04-27T05:42:35;100356.38;;;31.92;32.68
52032;BME280;38044;45.148;39.604;2023-04-27T05:45:01;100418.25;;;32.47;32.07
52032;BME280;38044;45.148;39.604;2023-04-27T05:47:29;100336.44;;;31.93;31.89
52032;BME280;38044;45.148;39.604;2023-04-27T05:49:55;100415.63;;;32.01;32.03
52032;BME280;38044;45.148;39.604;2023-04-27T05:52:20;100336.59;;;31.02;33.01
52032;BME280;38044;45.148;39.604;2023-04-27T05:54:47;100300.69;;;30.95;33.04
52032;BME280;38044;45.148;39.604;2023-04-27T05:57:14;100406.28;;;31.37;32.56
52032;BME280;38044;45.148;39.604;2023-04-27T05:59:41;100433.88;;;32.02;32.94
52032;BME280;38044;45.148;39.604;2023-04-27T06:02:07;100443.50;;;32.78;31.79
52032;BME280;38044;45.148;39.604;2023-04-27T06:04:33;100431.53;;;33.51;30.38
52032;BME280;38044;45.148;39.604;2023-04-27T06:06:59;100437.09;;;33.51;29.38
52032;BME280;38044;45.148;39.604;2023-04-27T06:09:24;100317.38;;;32.81;29.27
52032;BME280;38044;45.148;39.604;2023-04-27T06:11:50;100304.22;;;32.82;29.52
52032;BME280;38044;45.148;39.604;2023-04-27T06:14:16;100400.06;;;34.07;29.19
52032;BME280;38044;45.148;39.604;2023-04-27T06:16:42;100433.13;;;34.49;28.79
52032;BME280;38044;45.148;39.604;2023-04-27T06:19:08;100427.28;;;34.65;28.54
52032;BME280;38044;45.148;39.604;2023-04-27T06:21:34;100395.25;;;34.48;27.76
52032;BME280;38044;45.148;39.604;2023-04-27T06:24:00;100430.06;;;34.56;26.86
52032;BME280;38044;45.148;39.604;2023-04-27T06:26:27;100399.09;;;34.63;27.87
52032;BME280;38044;45.148;39.604;2023-04-27T06:28:53;100391.63;;;34.60;28.12
52032;BME280;38044;45.148;39.604;2023-04-27T06:31:20;100425.81;;;34.11;28.90
52032;BME280;38044;45.148;39.604;2023-04-27T06:33:46;100428.81;;;33.38;29.95
52032;BME280;38044;45.148;39.604;2023-04-27T06:36:12;100415.47;;;32.85;29.02
52032;BME280;38044;45.148;39.604;2023-04-27T06:38:38;100426.38;;;32.67;29.57
52032;BME280;38044;45.148;39.604;2023-04-27T06:41:04;100403.31;;;32.41;29.86
52032;BME280;38044;45.148;39.604;2023-04-27T06:43:30;100429.47;;;32.94;30.43
52032;BME280;38044;45.148;39.604;2023-04-27T06:45:56;100415.31;;;33.02;30.07
52032;BME280;38044;45.148;39.604;2023-04-27T06:48:22;100435.81;;;33.42;29.83
52032;BME280;38044;45.148;39.604;2023-04-27T06:50:47;100438.28;;;33.40;29.74
52032;BME280;38044;45.148;39.604;2023-04-27T06:53:13;100383.16;;;33.01;30.31
52032;BME280;38044;45.148;39.604;2023-04-27T06:55:41;100440.59;;;32.94;29.43
52032;BME280;38044;45.148;39.604;2023-04-27T06:58:07;100441.06;;;32.55;29.80
52032;BME280;38044;45.148;39.604;2023-04-27T07:00:33;100437.19;;;31.97;30.35
52032;BME280;38044;45.148;39.604;2023-04-27T07:02:59;100355.31;;;31.14;31.39
52032;BME280;38044;45.148;39.604;2023-04-27T07:05:25;100399.13;;;30.74;31.74
52032;BME280;38044;45.148;39.604;2023-04-27T07:07:51;100430.16;;;30.33;32.16
52032;BME280;38044;45.148;39.604;2023-04-27T07:10:17;100357.28;;;29.56;32.86
52032;BME280;38044;45.148;39.604;2023-04-27T07:12:43;100440.19;;;29.86;32.10
52032;BME280;38044;45.148;39.604;2023-04-27T07:15:09;100309.28;;;29.03;33.03
52032;BME280;38044;45.148;39.604;2023-04-27T07:17:35;100423.94;;;29.89;33.65
52032;BME280;38044;45.148;39.604;2023-04-27T07:20:01;100283.75;;;28.91;33.83
52032;BME280;38044;45.148;39.604;2023-04-27T07:22:29;100432.63;;;29.91;33.80
52032;BME280;38044;45.148;39.604;2023-04-27T07:24:55;100335.47;;;29.38;32.87
52032;BME280;38044;45.148;39.604;2023-04-27T07:27:21;100410.94;;;29.66;33.68
52032;BME280;38044;45.148;39.604;2023-04-27T07:29:46;100375.06;;;29.15;34.77
52032;BME280;38044;45.148;39.604;2023-04-27T07:32:12;100451.16;;;29.27;35.62
52032;BME280;38044;45.148;39.604;2023-04-27T07:34:39;100313.59;;;28.29;34.68
52032;BME280;38044;45.148;39.604;2023-04-27T07:37:06;100413.38;;;28.66;35.05
52032;BME280;38044;45.148;39.604;2023-04-27T07:39:32;100341.94;;;27.76;35.80
52032;BME280;38044;45.148;39.604;2023-04-27T07:41:58;100455.38;;;27.92;37.32
52032;BME280;38044;45.148;39.604;2023-04-27T07:44:24;100433.16;;;27.24;37.72
52032;BME280;38044;45.148;39.604;2023-04-27T07:46:50;100461.72;;;26.99;39.19
52032;BME280;38044;45.148;39.604;2023-04-27T07:49:19;100464.75;;;26.56;40.49
52032;BME280;38044;45.148;39.604;2023-04-27T07:51:45;100348.66;;;25.59;40.73
52032;BME280;38044;45.148;39.604;2023-04-27T07:54:11;100429.63;;;25.83;41.35
52032;BME280;38044;45.148;39.604;2023-04-27T07:56:40;100384.09;;;25.28;42.34
52032;BME280;38044;45.148;39.604;2023-04-27T07:59:06;100445.41;;;25.43;43.56
52032;BME280;38044;45.148;39.604;2023-04-27T08:01:32;100311.44;;;24.72;42.34
52032;BME280;38044;45.148;39.604;2023-04-27T08:03:58;100448.50;;;25.70;41.47
52032;BME280;38044;45.148;39.604;2023-04-27T08:06:23;100453.25;;;25.55;42.56
52032;BME280;38044;45.148;39.604;2023-04-27T08:08:49;100449.75;;;25.30;43.92
52032;BME280;38044;45.148;39.604;2023-04-27T08:11:15;100431.63;;;24.89;44.39
52032;BME280;38044;45.148;39.604;2023-04-27T08:13:41;100356.53;;;24.24;44.63
52032;BME280;38044;45.148;39.604;2023-04-27T08:16:07;100422.16;;;24.65;46.01
52032;BME280;38044;45.148;39.604;2023-04-27T08:18:33;100418.63;;;24.58;45.51
52032;BME280;38044;45.148;39.604;2023-04-27T08:20:59;100295.63;;;23.90;44.30
52032;BME280;38044;45.148;39.604;2023-04-27T08:23:28;100411.22;;;25.05;44.85
52032;BME280;38044;45.148;39.604;2023-04-27T08:25:55;100331.09;;;24.99;43.24
52032;BME280;38044;45.148;39.604;2023-04-27T08:28:21;100375.78;;;25.64;43.39
52032;BME280;38044;45.148;39.604;2023-04-27T08:30:47;100279.59;;;25.03;44.40
52032;BME280;38044;45.148;39.604;2023-04-27T08:33:13;100269.44;;;24.71;45.45
52032;BME280;38044;45.148;39.604;2023-04-27T08:35:39;100382.94;;;25.08;46.56
52032;BME280;38044;45.148;39.604;2023-04-27T08:38:05;100385.28;;;24.91;43.94
52032;BME280;38044;45.148;39.604;2023-04-27T08:40:31;100364.09;;;25.17;44.86
52032;BME280;38044;45.148;39.604;2023-04-27T08:42:58;100367.88;;;25.77;44.27
52032;BME280;38044;45.148;39.604;2023-04-27T08:45:26;100362.44;;;26.95;42.98
52032;BME280;38044;45.148;39.604;2023-04-27T08:47:52;100349.03;;;27.77;40.13
52032;BME280;38044;45.148;39.604;2023-04-27T08:50:19;100324.41;;;27.90;38.75
52032;BME280;38044;45.148;39.604;2023-04-27T08:52:48;100276.72;;;28.13;34.91
52032;BME280;38044;45.148;39.604;2023-04-27T08:55:13;100327.88;;;28.98;36.53
52032;BME280;38044;45.148;39.604;2023-04-27T08:57:40;100310.44;;;29.25;34.26
52032;BME280;38044;45.148;39.604;2023-04-27T09:00:11;100270.75;;;29.32;34.17
52032;BME280;38044;45.148;39.604;2023-04-27T09:02:44;100282.88;;;29.18;34.38
52032;BME280;38044;45.148;39.604;2023-04-27T09:05:21;100355.63;;;29.18;33.75
52032;BME280;38044;45.148;39.604;2023-04-27T09:08:04;100346.31;;;28.62;34.38
52032;BME280;38044;45.148;39.604;2023-04-27T09:10:51;100355.22;;;28.46;32.20
52032;BME280;38044;45.148;39.604;2023-04-27T09:13:17;100300.41;;;27.14;33.26
52032;BME280;38044;45.148;39.604;2023-04-27T09:15:52;100345.59;;;26.90;33.22
52032;BME280;38044;45.148;39.604;2023-04-27T09:18:21;100221.22;;;25.73;34.55
52032;BME280;38044;45.148;39.604;2023-04-27T09:20:49;100355.22;;;26.67;35.83
52032;BME280;38044;45.148;39.604;2023-04-27T09:23:35;100329.81;;;27.32;35.25
52032;BME280;38044;45.148;39.604;2023-04-27T09:26:03;100318.63;;;27.46;35.86
52032;BME280;38044;45.148;39.604;2023-04-27T09:28:33;100335.03;;;27.23;36.88
52032;BME280;38044;45.148;39.604;2023-04-27T09:31:01;100340.28;;;27.06;37.75
52032;BME280;38044;45.148;39.604;2023-04-27T09:33:30;100302.16;;;26.56;37.74
52032;BME280;38044;45.148;39.604;2023-04-27T09:36:01;100235.59;;;26.02;36.19
52032;BME280;38044;45.148;39.604;2023-04-27T09:38:28;100308.25;;;26.22;36.25
52032;BME280;38044;45.148;39.604;2023-04-27T09:40:54;100336.13;;;26.32;36.08
52032;BME280;38044;45.148;39.604;2023-04-27T09:43:21;100344.44;;;26.28;36.53
52032;BME280;38044;45.148;39.604;2023-04-27T09:45:48;100344.09;;;26.15;34.78
52032;BME280;38044;45.148;39.604;2023-04-27T09:48:15;100326.09;;;26.00;35.95
52032;BME280;38044;45.148;39.604;2023-04-27T09:50:42;100355.13;;;26.15;36.21
52032;BME280;38044;45.148;39.604;2023-04-27T09:53:11;100359.81;;;26.22;37.32
52032;BME280;38044;45.148;39.604;2023-04-27T10:08:55;100329.88;;;28.74;33.29
52032;BME280;38044;45.148;39.604;2023-04-27T10:11:42;100317.66;;;28.48;33.77
52032;BME280;38044;45.148;39.604;2023-04-27T10:14:14;100359.19;;;28.45;32.63
52032;BME280;38044;45.148;39.604;2023-04-27T10:16:55;100229.13;;;27.44;33.10
52032;BME280;38044;45.148;39.604;2023-04-27T10:19:22;100300.81;;;27.51;34.53
52032;BME280;38044;45.148;39.604;2023-04-27T10:21:59;100349.56;;;27.65;33.52
52032;BME280;38044;45.148;39.604;2023-04-27T10:24:48;100343.66;;;27.62;34.78
52032;BME280;38044;45.148;39.604;2023-04-27T10:27:16;100309.44;;;27.22;34.04
52032;BME280;38044;45.148;39.604;2023-04-27T10:29:46;100342.47;;;27.63;34.02
52032;BME280;38044;45.148;39.604;2023-04-27T10:32:22;100234.50;;;27.27;33.45
52032;BME280;38044;45.148;39.604;2023-04-27T10:34:49;100290.94;;;27.53;33.57
52032;BME280;38044;45.148;39.604;2023-04-27T10:37:16;100219.03;;;26.99;33.94
52032;BME280;38044;45.148;39.604;2023-04-27T10:39:44;100310.78;;;27.41;34.00
52032;BME280;38044;45.148;39.604;2023-04-27T10:42:10;100191.78;;;26.67;33.48
52032;BME280;38044;45.148;39.604;2023-04-27T10:44:37;100288.03;;;27.30;33.54
52032;BME280;38044;45.148;39.604;2023-04-27T10:47:16;100295.09;;;27.34;33.32
52032;BME280;38044;45.148;39.604;2023-04-27T10:49:46;100316.50;;;27.23;34.50
52032;BME280;38044;45.148;39.604;2023-04-27T10:52:12;100298.56;;;27.04;34.97
52032;BME280;38044;45.148;39.604;2023-04-27T10:54:38;100296.25;;;26.95;34.62
52032;BME280;38044;45.148;39.604;2023-04-27T10:57:06;100307.41;;;26.81;35.79
52032;BME280;38044;45.148;39.604;2023-04-27T10:59:33;100332.03;;;26.58;37.06
52032;BME280;38044;45.148;39.604;2023-04-27T11:01:59;100305.19;;;26.13;38.39
52032;BME280;38044;45.148;39.604;2023-04-27T11:04:36;100308.75;;;26.06;37.91
52032;BME280;38044;45.148;39.604;2023-04-27T11:07:02;100331.56;;;26.11;38.41
52032;BME280;38044;45.148;39.604;2023-04-27T11:09:29;100324.47;;;26.13;37.06
52032;BME280;38044;45.148;39.604;2023-04-27T11:11:55;100309.56;;;26.00;37.32
52032;BME280;38044;45.148;39.604;2023-04-27T11:14:21;100329.63;;;26.00;36.59
52032;BME280;38044;45.148;39.604;2023-04-27T11:16:47;100298.28;;;25.73;36.58
52032;BME280;38044;45.148;39.604;2023-04-27T11:19:13;100328.13;;;25.78;35.43
52032;BME280;38044;45.148;39.604;2023-04-27T11:21:40;100321.47;;;25.72;36.01
52032;BME280;38044;45.148;39.604;2023-04-27T11:24:06;100221.88;;;25.00;35.87
52032;BME280;38044;45.148;39.604;2023-04-27T11:26:33;100341.13;;;25.77;36.92
52032;BME280;38044;45.148;39.604;2023-04-27T11:29:03;100314.84;;;25.55;36.58
52032;BME280;38044;45.148;39.604;2023-04-27T11:31:52;100325.84;;;25.62;36.96
52032;BME280;38044;45.148;39.604;2023-04-27T11:34:19;100316.91;;;25.26;37.76
52032;BME280;38044;45.148;39.604;2023-04-27T11:37:03;100363.25;;;25.45;37.82
52032;BME280;38044;45.148;39.604;2023-04-27T11:39:37;100357.00;;;25.23;38.57
52032;BME280;38044;45.148;39.604;2023-04-27T11:42:25;100362.09;;;25.10;38.35
52032;BME280;38044;45.148;39.604;2023-04-27T11:45:00;100340.91;;;24.71;39.18
52032;BME280;38044;45.148;39.604;2023-04-27T11:47:28;100200.25;;;23.66;39.95
52032;BME280;38044;45.148;39.604;2023-04-27T11:49:57;100327.16;;;24.46;41.56
52032;BME280;38044;45.148;39.604;2023-04-27T11:52:30;100281.59;;;24.27;41.21
52032;BME280;38044;45.148;39.604;2023-04-27T11:54:57;100304.78;;;24.44;40.62
52032;BME280;38044;45.148;39.604;2023-04-27T11:57:25;100289.88;;;24.53;40.93
52032;BME280;38044;45.148;39.604;2023-04-27T11:59:55;100181.91;;;23.91;41.71
52032;BME280;38044;45.148;39.604;2023-04-27T12:02:22;100254.94;;;24.35;45.64
52032;BME280;38044;45.148;39.604;2023-04-27T12:04:51;100284.75;;;24.90;47.33
52032;BME280;38044;45.148;39.604;2023-04-27T12:07:17;100284.72;;;25.19;47.62
52032;BME280;38044;45.148;39.604;2023-04-27T12:09:43;100198.75;;;24.86;45.71
52032;BME280;38044;45.148;39.604;2023-04-27T12:12:10;100275.53;;;25.61;44.86
52032;BME280;38044;45.148;39.604;2023-04-27T12:14:37;100299.41;;;25.93;44.21
52032;BME280;38044;45.148;39.604;2023-04-27T12:17:03;100247.00;;;26.00;43.33
52032;BME280;38044;45.148;39.604;2023-04-27T12:19:29;100284.25;;;26.23;42.98
52032;BME280;38044;45.148;39.604;2023-04-27T12:21:56;100266.16;;;26.22;39.84
52032;BME280;38044;45.148;39.604;2023-04-27T12:24:22;100175.69;;;25.57;39.17
52032;BME280;38044;45.148;39.604;2023-04-27T12:26:48;100264.59;;;26.17;37.42
52032;BME280;38044;45.148;39.604;2023-04-27T12:29:16;100232.88;;;25.95;38.16
52032;BME280;38044;45.148;39.604;2023-04-27T12:31:42;100206.97;;;25.89;39.76
52032;BME280;38044;45.148;39.604;2023-04-27T12:34:08;100159.06;;;25.72;38.90
52032;BME280;38044;45.148;39.604;2023-04-27T12:36:34;100249.56;;;26.33;38.01
52032;BME280;38044;45.148;39.604;2023-04-27T12:39:15;100251.75;;;26.56;39.50
52032;BME280;38044;45.148;39.604;2023-04-27T12:41:43;100222.31;;;26.42;38.48
52032;BME280;38044;45.148;39.604;2023-04-27T12:44:09;100243.75;;;26.68;36.52
52032;BME280;38044;45.148;39.604;2023-04-27T12:46:37;100242.50;;;26.77;34.09
52032;BME280;38044;45.148;39.604;2023-04-27T12:49:04;100111.34;;;25.96;34.49
52032;BME280;38044;45.148;39.604;2023-04-27T12:51:31;100244.72;;;26.89;32.92
52032;BME280;38044;45.148;39.604;2023-04-27T12:53:59;100112.03;;;26.08;33.38